sensor_id;sensor_type;location;lat;lon;timestamp;P1;durP1;ratioP1;P2;durP2;ratioP2
32455;SDS011;18912;43.270;27.942;2023-12-20T00:02:14;8.87;;;4.13;;
32455;SDS011;18912;43.270;27.942;2023-12-20T00:04:39;7.77;;;3.60;;
32455;SDS011;18912;43.270;27.942;2023-12-20T00:07:05;5.93;;;3.43;;
32455;SDS011;18912;43.270;27.942;2023-12-20T00:09:30;5.13;;;2.43;;
32455;SDS011;18912;43.270;27.942;2023-12-20T00:11:55;7.70;;;3.63;;
32455;SDS011;18912;43.270;27.942;2023-12-20T00:14:21;7.53;;;3.70;;
32455;SDS011;18912;43.270;27.942;2023-12-20T00:16:47;8.80;;;3.80;;
32455;SDS011;18912;43.270;27.942;2023-12-20T00:19:12;7.07;;;2.60;;
32455;SDS011;18912;43.270;27.942;2023-12-20T00:21:38;5.97;;;3.13;;
32455;SDS011;18912;43.270;27.942;2023-12-20T00:24:03;7.87;;;3.57;;
32455;SDS011;18912;43.270;27.942;2023-12-20T00:26:29;8.20;;;4.03;;
32455;SDS011;18912;43.270;27.942;2023-12-20T00:28:55;18.93;;;4.67;;
32455;SDS011;18912;43.270;27.942;2023-12-20T00:31:20;7.10;;;3.77;;
32455;SDS011;18912;43.270;27.942;2023-12-20T00:33:46;9.33;;;4.03;;
32455;SDS011;18912;43.270;27.942;2023-12-20T00:36:12;6.20;;;3.55;;
32455;SDS011;18912;43.270;27.942;2023-12-20T00:38:37;5.90;;;2.50;;
32455;SDS011;18912;43.270;27.942;2023-12-20T00:41:03;5.90;;;3.40;;
32455;SDS011;18912;43.270;27.942;2023-12-20T00:43:28;7.20;;;3.23;;
32455;SDS011;18912;43.270;27.942;2023-12-20T00:45:54;7.87;;;2.80;;
32455;SDS011;18912;43.270;27.942;2023-12-20T00:48:20;6.20;;;3.38;;
32455;SDS011;18912;43.270;27.942;2023-12-20T00:50:46;8.13;;;2.93;;
32455;SDS011;18912;43.270;27.942;2023-12-20T00:53:11;9.57;;;3.90;;
32455;SDS011;18912;43.270;27.942;2023-12-20T00:55:37;14.00;;;5.37;;
32455;SDS011;18912;43.270;27.942;2023-12-20T00:58:02;8.83;;;5.20;;
32455;SDS011;18912;43.270;27.942;2023-12-20T01:00:28;6.93;;;3.10;;
32455;SDS011;18912;43.270;27.942;2023-12-20T01:02:53;7.80;;;3.87;;
32455;SDS011;18912;43.270;27.942;2023-12-20T01:05:19;53.17;;;22.07;;
32455;SDS011;18912;43.270;27.942;2023-12-20T01:07:44;17.93;;;8.97;;
32455;SDS011;18912;43.270;27.942;2023-12-20T01:10:10;19.63;;;9.73;;
32455;SDS011;18912;43.270;27.942;2023-12-20T01:12:36;7.27;;;3.40;;
32455;SDS011;18912;43.270;27.942;2023-12-20T01:15:02;5.50;;;2.85;;
32455;SDS011;18912;43.270;27.942;2023-12-20T01:17:27;8.80;;;4.75;;
32455;SDS011;18912;43.270;27.942;2023-12-20T01:19:53;6.57;;;3.83;;
32455;SDS011;18912;43.270;27.942;2023-12-20T01:22:18;5.80;;;2.87;;
32455;SDS011;18912;43.270;27.942;2023-12-20T01:24:44;4.17;;;2.33;;
32455;SDS011;18912;43.270;27.942;2023-12-20T01:27:09;7.10;;;2.70;;
32455;SDS011;18912;43.270;27.942;2023-12-20T01:29:35;6.10;;;2.43;;
32455;SDS011;18912;43.270;27.942;2023-12-20T01:32:00;6.27;;;2.30;;
32455;SDS011;18912;43.270;27.942;2023-12-20T01:34:26;11.90;;;4.43;;
32455;SDS011;18912;43.270;27.942;2023-12-20T01:36:51;11.13;;;5.13;;
32455;SDS011;18912;43.270;27.942;2023-12-20T01:39:17;6.50;;;2.37;;
32455;SDS011;18912;43.270;27.942;2023-12-20T01:41:43;7.15;;;3.40;;
32455;SDS011;18912;43.270;27.942;2023-12-20T01:44:08;11.67;;;5.43;;
32455;SDS011;18912;43.270;27.942;2023-12-20T01:46:34;21.13;;;7.63;;
32455;SDS011;18912;43.270;27.942;2023-12-20T01:48:59;7.27;;;3.70;;
32455;SDS011;18912;43.270;27.942;2023-12-20T01:51:25;5.53;;;2.92;;
32455;SDS011;18912;43.270;27.942;2023-12-20T01:53:52;6.15;;;2.97;;
32455;SDS011;18912;43.270;27.942;2023-12-20T01:56:20;6.32;;;3.15;;
32455;SDS011;18912;43.270;27.942;2023-12-20T01:58:46;5.43;;;3.15;;
32455;SDS011;18912;43.270;27.942;2023-12-20T02:01:13;10.82;;;5.05;;
32455;SDS011;18912;43.270;27.942;2023-12-20T02:03:42;8.67;;;4.40;;
32455;SDS011;18912;43.270;27.942;2023-12-20T02:06:08;16.77;;;6.45;;
32455;SDS011;18912;43.270;27.942;2023-12-20T02:08:34;17.52;;;7.45;;
32455;SDS011;18912;43.270;27.942;2023-12-20T02:11:01;7.95;;;4.00;;
32455;SDS011;18912;43.270;27.942;2023-12-20T02:13:27;7.72;;;4.32;;
32455;SDS011;18912;43.270;27.942;2023-12-20T02:15:52;8.20;;;3.80;;
32455;SDS011;18912;43.270;27.942;2023-12-20T02:18:19;5.97;;;3.60;;
32455;SDS011;18912;43.270;27.942;2023-12-20T02:20:45;8.47;;;3.43;;
32455;SDS011;18912;43.270;27.942;2023-12-20T02:23:10;5.87;;;2.83;;
32455;SDS011;18912;43.270;27.942;2023-12-20T02:25:36;7.30;;;3.40;;
32455;SDS011;18912;43.270;27.942;2023-12-20T02:28:02;6.63;;;3.30;;
32455;SDS011;18912;43.270;27.942;2023-12-20T02:32:54;4.60;;;2.47;;
32455;SDS011;18912;43.270;27.942;2023-12-20T02:35:19;4.00;;;2.20;;
32455;SDS011;18912;43.270;27.942;2023-12-20T02:37:45;4.00;;;2.50;;
32455;SDS011;18912;43.270;27.942;2023-12-20T02:40:10;4.13;;;3.00;;
32455;SDS011;18912;43.270;27.942;2023-12-20T02:42:36;6.17;;;2.63;;
32455;SDS011;18912;43.270;27.942;2023-12-20T02:45:02;4.03;;;2.30;;
32455;SDS011;18912;43.270;27.942;2023-12-20T02:47:27;5.10;;;2.80;;
32455;SDS011;18912;43.270;27.942;2023-12-20T02:49:54;7.03;;;2.33;;
32455;SDS011;18912;43.270;27.942;2023-12-20T02:52:20;8.83;;;3.97;;
32455;SDS011;18912;43.270;27.942;2023-12-20T02:54:45;4.53;;;2.30;;
32455;SDS011;18912;43.270;27.942;2023-12-20T02:57:11;3.17;;;2.07;;
32455;SDS011;18912;43.270;27.942;2023-12-20T02:59:36;8.27;;;4.20;;
32455;SDS011;18912;43.270;27.942;2023-12-20T03:02:02;6.97;;;3.40;;
32455;SDS011;18912;43.270;27.942;2023-12-20T03:04:27;4.80;;;2.77;;
32455;SDS011;18912;43.270;27.942;2023-12-20T03:06:53;4.23;;;2.27;;
32455;SDS011;18912;43.270;27.942;2023-12-20T03:09:18;4.50;;;1.90;;
32455;SDS011;18912;43.270;27.942;2023-12-20T03:11:44;9.53;;;2.33;;
32455;SDS011;18912;43.270;27.942;2023-12-20T03:14:09;3.97;;;2.00;;
32455;SDS011;18912;43.270;27.942;2023-12-20T03:16:35;3.43;;;2.13;;
32455;SDS011;18912;43.270;27.942;2023-12-20T03:19:00;4.50;;;2.27;;
32455;SDS011;18912;43.270;27.942;2023-12-20T03:21:26;3.50;;;1.93;;
32455;SDS011;18912;43.270;27.942;2023-12-20T03:23:51;4.87;;;2.20;;
32455;SDS011;18912;43.270;27.942;2023-12-20T03:26:16;3.77;;;2.30;;
32455;SDS011;18912;43.270;27.942;2023-12-20T03:28:42;4.37;;;2.20;;
32455;SDS011;18912;43.270;27.942;2023-12-20T03:31:09;2.73;;;2.07;;
32455;SDS011;18912;43.270;27.942;2023-12-20T03:33:35;3.75;;;2.17;;
32455;SDS011;18912;43.270;27.942;2023-12-20T03:36:00;2.13;;;1.53;;
32455;SDS011;18912;43.270;27.942;2023-12-20T03:38:25;3.90;;;1.83;;
32455;SDS011;18912;43.270;27.942;2023-12-20T03:40:51;5.23;;;2.30;;
32455;SDS011;18912;43.270;27.942;2023-12-20T03:43:16;2.93;;;1.80;;
32455;SDS011;18912;43.270;27.942;2023-12-20T03:45:42;6.00;;;2.40;;
32455;SDS011;18912;43.270;27.942;2023-12-20T03:48:08;3.53;;;2.20;;
32455;SDS011;18912;43.270;27.942;2023-12-20T03:50:34;6.68;;;2.30;;
32455;SDS011;18912;43.270;27.942;2023-12-20T03:53:00;3.50;;;2.40;;
32455;SDS011;18912;43.270;27.942;2023-12-20T03:55:25;5.23;;;2.37;;
32455;SDS011;18912;43.270;27.942;2023-12-20T03:57:51;4.80;;;1.97;;
32455;SDS011;18912;43.270;27.942;2023-12-20T04:00:16;3.63;;;2.13;;
32455;SDS011;18912;43.270;27.942;2023-12-20T04:02:42;5.97;;;2.87;;
32455;SDS011;18912;43.270;27.942;2023-12-20T04:05:08;8.00;;;2.80;;
32455;SDS011;18912;43.270;27.942;2023-12-20T04:07:35;5.72;;;2.80;;
32455;SDS011;18912;43.270;27.942;2023-12-20T04:10:01;5.22;;;2.97;;
32455;SDS011;18912;43.270;27.942;2023-12-20T04:12:30;6.45;;;3.28;;
32455;SDS011;18912;43.270;27.942;2023-12-20T04:14:56;8.93;;;3.15;;
32455;SDS011;18912;43.270;27.942;2023-12-20T04:17:22;5.75;;;3.13;;
32455;SDS011;18912;43.270;27.942;2023-12-20T04:19:48;9.10;;;3.58;;
32455;SDS011;18912;43.270;27.942;2023-12-20T04:22:19;4.90;;;2.80;;
32455;SDS011;18912;43.270;27.942;2023-12-20T04:24:45;6.03;;;3.20;;
32455;SDS011;18912;43.270;27.942;2023-12-20T04:27:10;5.13;;;2.97;;
32455;SDS011;18912;43.270;27.942;2023-12-20T04:29:36;8.98;;;3.67;;
32455;SDS011;18912;43.270;27.942;2023-12-20T04:32:02;6.77;;;3.33;;
32455;SDS011;18912;43.270;27.942;2023-12-20T04:34:29;7.53;;;3.88;;
32455;SDS011;18912;43.270;27.942;2023-12-20T04:36:54;7.57;;;3.97;;
32455;SDS011;18912;43.270;27.942;2023-12-20T04:39:20;8.63;;;3.97;;
32455;SDS011;18912;43.270;27.942;2023-12-20T04:41:45;6.00;;;3.53;;
32455;SDS011;18912;43.270;27.942;2023-12-20T04:44:12;7.47;;;3.58;;
32455;SDS011;18912;43.270;27.942;2023-12-20T04:46:38;7.35;;;3.55;;
32455;SDS011;18912;43.270;27.942;2023-12-20T04:49:04;11.30;;;4.28;;
32455;SDS011;18912;43.270;27.942;2023-12-20T04:51:32;10.70;;;4.20;;
32455;SDS011;18912;43.270;27.942;2023-12-20T04:53:59;5.35;;;3.30;;
32455;SDS011;18912;43.270;27.942;2023-12-20T04:56:24;7.40;;;3.37;;
32455;SDS011;18912;43.270;27.942;2023-12-20T04:58:50;6.73;;;3.00;;
32455;SDS011;18912;43.270;27.942;2023-12-20T05:01:16;3.67;;;2.27;;
32455;SDS011;18912;43.270;27.942;2023-12-20T05:03:42;5.78;;;3.65;;
32455;SDS011;18912;43.270;27.942;2023-12-20T05:06:07;5.30;;;2.90;;
32455;SDS011;18912;43.270;27.942;2023-12-20T05:08:33;6.00;;;2.90;;
32455;SDS011;18912;43.270;27.942;2023-12-20T05:10:58;4.77;;;2.57;;
32455;SDS011;18912;43.270;27.942;2023-12-20T05:13:24;6.87;;;3.37;;
32455;SDS011;18912;43.270;27.942;2023-12-20T05:15:50;6.27;;;3.43;;
32455;SDS011;18912;43.270;27.942;2023-12-20T05:18:16;7.07;;;2.80;;
32455;SDS011;18912;43.270;27.942;2023-12-20T05:20:41;4.60;;;2.27;;
32455;SDS011;18912;43.270;27.942;2023-12-20T05:23:07;3.47;;;2.07;;
32455;SDS011;18912;43.270;27.942;2023-12-20T05:25:32;3.93;;;2.37;;
32455;SDS011;18912;43.270;27.942;2023-12-20T05:27:58;5.57;;;2.80;;
32455;SDS011;18912;43.270;27.942;2023-12-20T05:30:23;5.43;;;2.93;;
32455;SDS011;18912;43.270;27.942;2023-12-20T05:32:49;7.93;;;2.87;;
32455;SDS011;18912;43.270;27.942;2023-12-20T05:35:15;4.40;;;2.57;;
32455;SDS011;18912;43.270;27.942;2023-12-20T05:37:41;3.83;;;2.33;;
32455;SDS011;18912;43.270;27.942;2023-12-20T05:40:07;5.55;;;2.58;;
32455;SDS011;18912;43.270;27.942;2023-12-20T05:42:35;9.57;;;2.75;;
32455;SDS011;18912;43.270;27.942;2023-12-20T05:45:02;8.70;;;2.78;;
32455;SDS011;18912;43.270;27.942;2023-12-20T05:47:28;5.60;;;3.33;;
32455;SDS011;18912;43.270;27.942;2023-12-20T05:49:54;3.07;;;1.83;;
32455;SDS011;18912;43.270;27.942;2023-12-20T05:52:20;6.73;;;2.70;;
32455;SDS011;18912;43.270;27.942;2023-12-20T05:54:45;3.13;;;2.00;;
32455;SDS011;18912;43.270;27.942;2023-12-20T05:57:10;4.30;;;2.47;;
32455;SDS011;18912;43.270;27.942;2023-12-20T05:59:36;4.03;;;2.30;;
32455;SDS011;18912;43.270;27.942;2023-12-20T06:02:03;4.97;;;2.80;;
32455;SDS011;18912;43.270;27.942;2023-12-20T06:04:29;3.00;;;2.25;;
32455;SDS011;18912;43.270;27.942;2023-12-20T06:06:54;6.80;;;2.40;;
32455;SDS011;18912;43.270;27.942;2023-12-20T06:09:20;4.87;;;2.33;;
32455;SDS011;18912;43.270;27.942;2023-12-20T06:11:46;3.13;;;2.20;;
32455;SDS011;18912;43.270;27.942;2023-12-20T06:14:11;3.37;;;2.17;;
32455;SDS011;18912;43.270;27.942;2023-12-20T06:16:37;4.03;;;2.40;;
32455;SDS011;18912;43.270;27.942;2023-12-20T06:19:02;4.07;;;2.23;;
32455;SDS011;18912;43.270;27.942;2023-12-20T06:21:28;4.93;;;2.53;;
32455;SDS011;18912;43.270;27.942;2023-12-20T06:23:53;5.30;;;2.60;;
32455;SDS011;18912;43.270;27.942;2023-12-20T06:26:20;4.70;;;2.22;;
32455;SDS011;18912;43.270;27.942;2023-12-20T06:28:45;4.43;;;2.40;;
32455;SDS011;18912;43.270;27.942;2023-12-20T06:31:11;4.07;;;2.40;;
32455;SDS011;18912;43.270;27.942;2023-12-20T06:33:37;4.13;;;2.40;;
32455;SDS011;18912;43.270;27.942;2023-12-20T06:36:05;6.20;;;3.33;;
32455;SDS011;18912;43.270;27.942;2023-12-20T06:38:31;4.77;;;3.33;;
32455;SDS011;18912;43.270;27.942;2023-12-20T06:40:57;7.53;;;3.47;;
32455;SDS011;18912;43.270;27.942;2023-12-20T06:45:49;4.45;;;2.80;;
32455;SDS011;18912;43.270;27.942;2023-12-20T06:50:41;7.97;;;4.25;;
32455;SDS011;18912;43.270;27.942;2023-12-20T06:53:07;4.90;;;2.80;;
32455;SDS011;18912;43.270;27.942;2023-12-20T06:55:33;7.73;;;4.20;;
32455;SDS011;18912;43.270;27.942;2023-12-20T06:58:01;4.72;;;2.95;;
32455;SDS011;18912;43.270;27.942;2023-12-20T07:00:27;3.83;;;2.67;;
32455;SDS011;18912;43.270;27.942;2023-12-20T07:02:53;5.03;;;2.95;;
32455;SDS011;18912;43.270;27.942;2023-12-20T07:05:18;3.53;;;2.73;;
32455;SDS011;18912;43.270;27.942;2023-12-20T07:07:47;4.88;;;2.33;;
32455;SDS011;18912;43.270;27.942;2023-12-20T07:10:13;4.85;;;2.75;;
32455;SDS011;18912;43.270;27.942;2023-12-20T07:12:39;5.07;;;3.08;;
32455;SDS011;18912;43.270;27.942;2023-12-20T07:15:05;6.40;;;2.80;;
32455;SDS011;18912;43.270;27.942;2023-12-20T07:17:32;7.43;;;3.22;;
32455;SDS011;18912;43.270;27.942;2023-12-20T07:22:28;4.80;;;3.33;;
32455;SDS011;18912;43.270;27.942;2023-12-20T07:24:53;7.00;;;4.13;;
32455;SDS011;18912;43.270;27.942;2023-12-20T07:27:19;6.60;;;4.65;;
32455;SDS011;18912;43.270;27.942;2023-12-20T07:29:45;7.53;;;4.23;;
32455;SDS011;18912;43.270;27.942;2023-12-20T07:32:11;11.40;;;5.67;;
32455;SDS011;18912;43.270;27.942;2023-12-20T07:34:36;9.53;;;3.80;;
32455;SDS011;18912;43.270;27.942;2023-12-20T07:37:02;5.50;;;3.33;;
32455;SDS011;18912;43.270;27.942;2023-12-20T07:39:27;8.70;;;5.07;;
32455;SDS011;18912;43.270;27.942;2023-12-20T07:41:53;7.77;;;4.80;;
32455;SDS011;18912;43.270;27.942;2023-12-20T07:44:19;10.37;;;5.80;;
32455;SDS011;18912;43.270;27.942;2023-12-20T07:46:44;7.73;;;3.90;;
32455;SDS011;18912;43.270;27.942;2023-12-20T07:49:10;10.87;;;4.53;;
32455;SDS011;18912;43.270;27.942;2023-12-20T07:51:36;6.35;;;3.20;;
32455;SDS011;18912;43.270;27.942;2023-12-20T07:54:01;6.83;;;3.63;;
32455;SDS011;18912;43.270;27.942;2023-12-20T07:56:28;7.70;;;3.20;;
32455;SDS011;18912;43.270;27.942;2023-12-20T07:58:54;9.90;;;4.07;;
32455;SDS011;18912;43.270;27.942;2023-12-20T08:01:19;7.53;;;3.77;;
32455;SDS011;18912;43.270;27.942;2023-12-20T08:03:45;7.53;;;3.30;;
32455;SDS011;18912;43.270;27.942;2023-12-20T08:06:11;11.18;;;5.57;;
32455;SDS011;18912;43.270;27.942;2023-12-20T08:08:37;8.87;;;3.20;;
32455;SDS011;18912;43.270;27.942;2023-12-20T08:11:02;9.80;;;3.40;;
32455;SDS011;18912;43.270;27.942;2023-12-20T08:13:28;6.77;;;3.17;;
32455;SDS011;18912;43.270;27.942;2023-12-20T08:15:54;7.80;;;3.40;;
32455;SDS011;18912;43.270;27.942;2023-12-20T08:20:46;4.72;;;2.65;;
32455;SDS011;18912;43.270;27.942;2023-12-20T08:23:13;4.35;;;3.08;;
32455;SDS011;18912;43.270;27.942;2023-12-20T08:25:40;6.10;;;3.75;;
32455;SDS011;18912;43.270;27.942;2023-12-20T08:28:06;6.40;;;3.40;;
32455;SDS011;18912;43.270;27.942;2023-12-20T08:30:31;7.30;;;4.10;;
32455;SDS011;18912;43.270;27.942;2023-12-20T08:33:00;7.40;;;3.70;;
32455;SDS011;18912;43.270;27.942;2023-12-20T08:35:26;5.95;;;3.35;;
32455;SDS011;18912;43.270;27.942;2023-12-20T08:37:52;5.40;;;3.50;;
32455;SDS011;18912;43.270;27.942;2023-12-20T08:40:17;6.00;;;3.20;;
32455;SDS011;18912;43.270;27.942;2023-12-20T08:42:43;12.77;;;5.50;;
32455;SDS011;18912;43.270;27.942;2023-12-20T08:45:09;8.53;;;4.23;;
32455;SDS011;18912;43.270;27.942;2023-12-20T08:47:35;5.60;;;2.88;;
32455;SDS011;18912;43.270;27.942;2023-12-20T08:50:00;8.53;;;3.80;;
32455;SDS011;18912;43.270;27.942;2023-12-20T08:52:26;13.48;;;3.50;;
32455;SDS011;18912;43.270;27.942;2023-12-20T08:54:52;7.77;;;4.03;;
32455;SDS011;18912;43.270;27.942;2023-12-20T08:57:21;11.80;;;4.85;;
32455;SDS011;18912;43.270;27.942;2023-12-20T08:59:48;7.65;;;3.30;;
32455;SDS011;18912;43.270;27.942;2023-12-20T09:02:14;7.97;;;3.30;;
32455;SDS011;18912;43.270;27.942;2023-12-20T09:04:41;9.52;;;3.47;;
32455;SDS011;18912;43.270;27.942;2023-12-20T09:07:07;7.45;;;3.53;;
32455;SDS011;18912;43.270;27.942;2023-12-20T09:09:45;14.60;;;6.72;;
32455;SDS011;18912;43.270;27.942;2023-12-20T09:12:11;4.67;;;2.90;;
32455;SDS011;18912;43.270;27.942;2023-12-20T09:14:36;5.13;;;3.20;;
32455;SDS011;18912;43.270;27.942;2023-12-20T09:17:03;12.87;;;5.40;;
32455;SDS011;18912;43.270;27.942;2023-12-20T09:21:55;12.80;;;5.03;;
32455;SDS011;18912;43.270;27.942;2023-12-20T09:24:20;8.13;;;3.87;;
32455;SDS011;18912;43.270;27.942;2023-12-20T09:26:46;10.60;;;5.30;;
32455;SDS011;18912;43.270;27.942;2023-12-20T09:29:11;10.53;;;4.73;;
32455;SDS011;18912;43.270;27.942;2023-12-20T09:31:40;13.45;;;4.53;;
32455;SDS011;18912;43.270;27.942;2023-12-20T09:34:06;4.75;;;2.72;;
32455;SDS011;18912;43.270;27.942;2023-12-20T09:39:01;9.45;;;3.30;;
32455;SDS011;18912;43.270;27.942;2023-12-20T09:41:27;21.30;;;8.67;;
32455;SDS011;18912;43.270;27.942;2023-12-20T09:43:56;13.07;;;5.53;;
32455;SDS011;18912;43.270;27.942;2023-12-20T09:46:27;8.60;;;4.00;;
32455;SDS011;18912;43.270;27.942;2023-12-20T09:48:58;18.98;;;6.63;;
32455;SDS011;18912;43.270;27.942;2023-12-20T09:51:25;12.25;;;5.47;;
32455;SDS011;18912;43.270;27.942;2023-12-20T09:56:19;12.55;;;5.10;;
32455;SDS011;18912;43.270;27.942;2023-12-20T09:58:45;12.50;;;4.60;;
32455;SDS011;18912;43.270;27.942;2023-12-20T10:01:10;7.40;;;3.53;;
32455;SDS011;18912;43.270;27.942;2023-12-20T10:03:36;5.70;;;2.47;;
32455;SDS011;18912;43.270;27.942;2023-12-20T10:06:06;10.82;;;4.15;;
32455;SDS011;18912;43.270;27.942;2023-12-20T10:08:32;5.03;;;2.50;;
32455;SDS011;18912;43.270;27.942;2023-12-20T10:10:57;8.60;;;3.30;;
32455;SDS011;18912;43.270;27.942;2023-12-20T10:13:27;4.78;;;2.50;;
32455;SDS011;18912;43.270;27.942;2023-12-20T10:15:54;23.95;;;8.35;;
32455;SDS011;18912;43.270;27.942;2023-12-20T10:18:20;10.20;;;4.20;;
32455;SDS011;18912;43.270;27.942;2023-12-20T10:20:46;4.53;;;2.60;;
32455;SDS011;18912;43.270;27.942;2023-12-20T10:23:12;10.30;;;2.50;;
32455;SDS011;18912;43.270;27.942;2023-12-20T10:25:39;19.90;;;7.50;;
32455;SDS011;18912;43.270;27.942;2023-12-20T10:28:15;7.93;;;3.15;;
32455;SDS011;18912;43.270;27.942;2023-12-20T10:30:46;5.32;;;2.90;;
32455;SDS011;18912;43.270;27.942;2023-12-20T10:33:11;6.30;;;3.33;;
32455;SDS011;18912;43.270;27.942;2023-12-20T10:35:37;9.73;;;4.23;;
32455;SDS011;18912;43.270;27.942;2023-12-20T10:38:04;5.90;;;3.20;;
32455;SDS011;18912;43.270;27.942;2023-12-20T10:40:31;5.22;;;3.10;;
32455;SDS011;18912;43.270;27.942;2023-12-20T10:43:03;5.20;;;2.72;;
32455;SDS011;18912;43.270;27.942;2023-12-20T10:45:30;5.88;;;3.05;;
32455;SDS011;18912;43.270;27.942;2023-12-20T10:47:55;6.67;;;3.07;;
32455;SDS011;18912;43.270;27.942;2023-12-20T10:50:24;3.58;;;2.67;;
32455;SDS011;18912;43.270;27.942;2023-12-20T10:52:50;4.07;;;2.83;;
32455;SDS011;18912;43.270;27.942;2023-12-20T10:55:20;6.53;;;2.90;;
32455;SDS011;18912;43.270;27.942;2023-12-20T10:57:50;8.02;;;4.20;;
32455;SDS011;18912;43.270;27.942;2023-12-20T11:00:17;7.28;;;3.75;;
32455;SDS011;18912;43.270;27.942;2023-12-20T11:02:43;5.60;;;2.80;;
32455;SDS011;18912;43.270;27.942;2023-12-20T11:05:11;4.63;;;3.13;;
32455;SDS011;18912;43.270;27.942;2023-12-20T11:08:03;5.22;;;2.90;;
32455;SDS011;18912;43.270;27.942;2023-12-20T11:10:46;8.02;;;3.97;;
32455;SDS011;18912;43.270;27.942;2023-12-20T11:13:40;9.63;;;2.80;;
32455;SDS011;18912;43.270;27.942;2023-12-20T11:16:13;7.05;;;3.88;;
32455;SDS011;18912;43.270;27.942;2023-12-20T11:18:40;8.27;;;3.63;;
32455;SDS011;18912;43.270;27.942;2023-12-20T11:21:06;6.45;;;3.67;;
32455;SDS011;18912;43.270;27.942;2023-12-20T11:23:32;5.03;;;3.07;;
32455;SDS011;18912;43.270;27.942;2023-12-20T11:26:01;5.10;;;3.22;;
32455;SDS011;18912;43.270;27.942;2023-12-20T11:28:27;7.18;;;4.07;;
32455;SDS011;18912;43.270;27.942;2023-12-20T11:30:55;4.40;;;2.90;;
32455;SDS011;18912;43.270;27.942;2023-12-20T11:33:45;6.70;;;3.00;;
32455;SDS011;18912;43.270;27.942;2023-12-20T11:36:19;6.00;;;2.92;;
32455;SDS011;18912;43.270;27.942;2023-12-20T11:38:53;10.18;;;3.92;;
32455;SDS011;18912;43.270;27.942;2023-12-20T11:41:22;10.35;;;4.20;;
32455;SDS011;18912;43.270;27.942;2023-12-20T11:43:49;9.90;;;4.35;;
32455;SDS011;18912;43.270;27.942;2023-12-20T11:46:19;8.05;;;2.78;;
32455;SDS011;18912;43.270;27.942;2023-12-20T11:48:44;5.03;;;2.75;;
32455;SDS011;18912;43.270;27.942;2023-12-20T11:51:11;7.22;;;3.17;;
32455;SDS011;18912;43.270;27.942;2023-12-20T11:53:38;5.75;;;3.38;;
32455;SDS011;18912;43.270;27.942;2023-12-20T11:58:33;5.95;;;3.42;;
32455;SDS011;18912;43.270;27.942;2023-12-20T12:03:27;8.45;;;3.70;;
32455;SDS011;18912;43.270;27.942;2023-12-20T12:05:53;8.97;;;4.00;;
32455;SDS011;18912;43.270;27.942;2023-12-20T12:08:18;4.60;;;3.17;;
32455;SDS011;18912;43.270;27.942;2023-12-20T12:10:44;11.77;;;3.43;;
32455;SDS011;18912;43.270;27.942;2023-12-20T12:13:11;10.85;;;3.15;;
32455;SDS011;18912;43.270;27.942;2023-12-20T12:15:37;6.00;;;2.70;;
32455;SDS011;18912;43.270;27.942;2023-12-20T12:18:02;5.70;;;2.73;;
32455;SDS011;18912;43.270;27.942;2023-12-20T12:20:28;6.32;;;3.00;;
32455;SDS011;18912;43.270;27.942;2023-12-20T12:23:01;7.75;;;3.03;;
32455;SDS011;18912;43.270;27.942;2023-12-20T12:25:32;6.57;;;3.45;;
32455;SDS011;18912;43.270;27.942;2023-12-20T12:28:00;5.35;;;3.53;;
32455;SDS011;18912;43.270;27.942;2023-12-20T12:32:52;8.88;;;4.13;;
32455;SDS011;18912;43.270;27.942;2023-12-20T12:35:18;6.18;;;3.97;;
32455;SDS011;18912;43.270;27.942;2023-12-20T12:37:44;5.38;;;3.25;;
32455;SDS011;18912;43.270;27.942;2023-12-20T12:40:10;4.23;;;2.30;;
32455;SDS011;18912;43.270;27.942;2023-12-20T12:42:38;4.40;;;2.65;;
32455;SDS011;18912;43.270;27.942;2023-12-20T12:45:04;9.50;;;2.67;;
32455;SDS011;18912;43.270;27.942;2023-12-20T12:47:30;6.60;;;3.30;;
32455;SDS011;18912;43.270;27.942;2023-12-20T12:49:56;4.93;;;2.85;;
32455;SDS011;18912;43.270;27.942;2023-12-20T12:52:21;4.87;;;2.33;;
32455;SDS011;18912;43.270;27.942;2023-12-20T12:54:47;8.43;;;3.63;;
32455;SDS011;18912;43.270;27.942;2023-12-20T12:57:14;5.05;;;3.20;;
32455;SDS011;18912;43.270;27.942;2023-12-20T12:59:41;5.82;;;3.00;;
32455;SDS011;18912;43.270;27.942;2023-12-20T13:04:33;7.38;;;4.03;;
32455;SDS011;18912;43.270;27.942;2023-12-20T13:06:59;9.77;;;5.40;;
32455;SDS011;18912;43.270;27.942;2023-12-20T13:09:25;11.40;;;5.22;;
32455;SDS011;18912;43.270;27.942;2023-12-20T13:11:50;10.20;;;4.77;;
32455;SDS011;18912;43.270;27.942;2023-12-20T13:14:16;10.67;;;6.03;;
32455;SDS011;18912;43.270;27.942;2023-12-20T13:16:42;14.13;;;5.63;;
32455;SDS011;18912;43.270;27.942;2023-12-20T13:19:07;13.97;;;5.50;;
32455;SDS011;18912;43.270;27.942;2023-12-20T13:21:34;10.07;;;5.13;;
32455;SDS011;18912;43.270;27.942;2023-12-20T13:24:00;13.57;;;5.45;;
32455;SDS011;18912;43.270;27.942;2023-12-20T13:26:26;12.07;;;5.57;;
32455;SDS011;18912;43.270;27.942;2023-12-20T13:28:52;19.20;;;6.57;;
32455;SDS011;18912;43.270;27.942;2023-12-20T13:33:45;13.27;;;5.88;;
32455;SDS011;18912;43.270;27.942;2023-12-20T13:36:10;12.33;;;5.80;;
32455;SDS011;18912;43.270;27.942;2023-12-20T13:38:37;13.63;;;4.78;;
32455;SDS011;18912;43.270;27.942;2023-12-20T13:41:02;10.37;;;4.43;;
32455;SDS011;18912;43.270;27.942;2023-12-20T13:43:28;8.37;;;3.80;;
32455;SDS011;18912;43.270;27.942;2023-12-20T13:45:54;6.13;;;3.57;;
32455;SDS011;18912;43.270;27.942;2023-12-20T13:48:19;12.70;;;5.40;;
32455;SDS011;18912;43.270;27.942;2023-12-20T13:50:45;12.33;;;4.67;;
32455;SDS011;18912;43.270;27.942;2023-12-20T13:53:10;13.87;;;5.60;;
32455;SDS011;18912;43.270;27.942;2023-12-20T13:55:36;12.00;;;6.67;;
32455;SDS011;18912;43.270;27.942;2023-12-20T13:58:02;12.53;;;5.47;;
32455;SDS011;18912;43.270;27.942;2023-12-20T14:00:27;15.50;;;7.87;;
32455;SDS011;18912;43.270;27.942;2023-12-20T14:02:53;18.53;;;7.60;;
32455;SDS011;18912;43.270;27.942;2023-12-20T14:05:18;18.80;;;8.83;;
32455;SDS011;18912;43.270;27.942;2023-12-20T14:07:44;19.30;;;8.77;;
32455;SDS011;18912;43.270;27.942;2023-12-20T14:10:13;20.70;;;9.17;;
32455;SDS011;18912;43.270;27.942;2023-12-20T14:12:39;18.23;;;8.98;;
32455;SDS011;18912;43.270;27.942;2023-12-20T14:15:05;23.17;;;9.63;;
32455;SDS011;18912;43.270;27.942;2023-12-20T14:17:39;19.95;;;8.82;;
32455;SDS011;18912;43.270;27.942;2023-12-20T14:20:08;20.20;;;9.40;;
32455;SDS011;18912;43.270;27.942;2023-12-20T14:22:34;18.60;;;9.77;;
32455;SDS011;18912;43.270;27.942;2023-12-20T14:25:00;16.77;;;8.60;;
32455;SDS011;18912;43.270;27.942;2023-12-20T14:27:27;25.50;;;8.90;;
32455;SDS011;18912;43.270;27.942;2023-12-20T14:29:56;21.00;;;8.77;;
32455;SDS011;18912;43.270;27.942;2023-12-20T14:32:21;15.75;;;8.50;;
32455;SDS011;18912;43.270;27.942;2023-12-20T14:34:47;16.30;;;6.80;;
32455;SDS011;18912;43.270;27.942;2023-12-20T14:37:13;15.70;;;8.23;;
32455;SDS011;18912;43.270;27.942;2023-12-20T14:39:39;15.07;;;7.10;;
32455;SDS011;18912;43.270;27.942;2023-12-20T14:42:09;8.88;;;4.85;;
32455;SDS011;18912;43.270;27.942;2023-12-20T14:44:38;14.10;;;6.05;;
32455;SDS011;18912;43.270;27.942;2023-12-20T14:47:04;18.00;;;7.27;;
32455;SDS011;18912;43.270;27.942;2023-12-20T14:49:30;19.75;;;8.57;;
32455;SDS011;18912;43.270;27.942;2023-12-20T14:51:56;13.27;;;7.70;;
32455;SDS011;18912;43.270;27.942;2023-12-20T14:54:22;14.70;;;8.52;;
32455;SDS011;18912;43.270;27.942;2023-12-20T14:56:47;16.80;;;8.20;;
32455;SDS011;18912;43.270;27.942;2023-12-20T14:59:13;12.13;;;5.60;;